Time;durP1;ratioP1;P1;durP2;ratioP2;P2;SDS_P1;SDS_P2;PMS_P1;PMS_P2;Temp;Humidity;BMP_temperature;BMP_pressure;BME280_temperature;BME280_humidity;BME280_pressure;Samples;Min_cycle;Max_cycle;Signal;HPM_P1;HPM_P2
2022/08/07 00:00:27;;;;;;;17.40;9.40;;;14.50;99.90;;;;;;5071619;28;20037;-69
2022/08/07 00:02:56;;;;;;;15.32;9.00;;;14.40;99.90;;;;;;5053579;28;20040;-69
2022/08/07 00:05:22;;;;;;;12.32;7.57;;;14.40;99.90;;;;;;5071858;28;20425;-69
2022/08/07 00:07:48;;;;;;;9.90;6.35;;;14.40;99.90;;;;;;5071781;28;20040;-69
2022/08/07 00:10:14;;;;;;;10.40;6.43;;;14.40;99.90;;;;;;5036802;28;20119;-69
2022/08/07 00:12:42;;;;;;;9.75;7.25;;;14.30;99.90;;;;;;5071487;28;20050;-69
2022/08/07 00:15:09;;;;;;;8.35;5.45;;;14.30;99.90;;;;;;5053809;28;20052;-69
2022/08/07 00:17:34;;;;;;;9.70;6.53;;;14.30;99.90;;;;;;5071568;28;20047;-69
2022/08/07 00:20:00;;;;;;;12.57;6.88;;;14.20;99.90;;;;;;5053326;28;20037;-69
2022/08/07 00:22:26;;;;;;;10.68;6.07;;;14.20;99.90;;;;;;5071414;28;20135;-69
2022/08/07 00:24:51;;;;;;;13.82;7.28;;;14.20;99.90;;;;;;5071519;28;20040;-69
2022/08/07 00:27:17;;;;;;;14.20;7.93;;;14.20;99.90;;;;;;5071359;28;20405;-69
2022/08/07 00:29:42;;;;;;;18.83;7.95;;;14.10;99.90;;;;;;5073521;28;20040;-69
2022/08/07 00:32:10;;;;;;;10.48;6.88;;;14.10;99.90;;;;;;5075605;28;20044;-69
2022/08/07 00:34:35;;;;;;;10.23;6.88;;;14.00;99.90;;;;;;5075414;28;20529;-69
2022/08/07 00:37:02;;;;;;;12.80;7.18;;;14.10;99.90;;;;;;5075513;28;20040;-69
2022/08/07 00:39:27;;;;;;;11.95;7.75;;;13.90;99.90;;;;;;5074957;28;20478;-69
2022/08/07 00:41:56;;;;;;;8.60;7.00;;;13.90;99.90;;;;;;5057159;28;20040;-69
2022/08/07 00:44:22;;;;;;;9.75;6.32;;;13.80;99.90;;;;;;5057556;28;20473;-69
2022/08/07 00:46:48;;;;;;;9.25;5.38;;;13.60;99.90;;;;;;5075354;28;20044;-69
2022/08/07 00:49:14;;;;;;;8.98;6.25;;;13.60;99.90;;;;;;5074952;28;20032;-69
2022/08/07 00:51:40;;;;;;;9.63;6.50;;;13.60;99.90;;;;;;5075184;28;20110;-69
2022/08/07 00:54:06;;;;;;;8.80;5.20;;;13.60;99.90;;;;;;5075016;28;20502;-69
2022/08/07 00:56:32;;;;;;;6.68;4.70;;;13.30;99.90;;;;;;5057266;28;20401;-69
2022/08/07 00:58:59;;;;;;;6.20;4.70;;;13.30;99.90;;;;;;5057227;28;20067;-69
2022/08/07 01:01:25;;;;;;;8.00;6.10;;;13.30;99.90;;;;;;5074770;28;20048;-69
2022/08/07 01:03:51;;;;;;;7.72;5.75;;;13.20;99.90;;;;;;5074740;28;20033;-69
2022/08/07 01:06:17;;;;;;;7.50;5.95;;;13.20;99.90;;;;;;5057257;28;20040;-69
2022/08/07 01:08:44;;;;;;;7.85;6.25;;;13.10;99.90;;;;;;5040239;28;20032;-69
2022/08/07 01:11:13;;;;;;;7.43;5.80;;;13.10;99.90;;;;;;5056458;28;20051;-69
2022/08/07 01:13:40;;;;;;;8.50;5.97;;;13.00;99.90;;;;;;5056710;28;20041;-69
2022/08/07 01:16:07;;;;;;;6.82;5.35;;;13.00;99.90;;;;;;5074784;28;20052;-69
2022/08/07 01:18:34;;;;;;;6.70;5.75;;;12.90;99.90;;;;;;5056967;28;20045;-69
2022/08/07 01:21:14;;;;;;;9.25;5.90;;;12.80;99.90;;;;;;5056336;28;20048;-69
2022/08/07 01:23:41;;;;;;;9.38;5.68;;;12.80;99.90;;;;;;5074437;28;20047;-69
2022/08/07 01:26:08;;;;;;;10.13;5.95;;;12.80;99.90;;;;;;5074688;28;20045;-69
2022/08/07 01:28:36;;;;;;;7.78;5.35;;;12.80;99.90;;;;;;5074383;28;20444;-69
2022/08/07 01:31:02;;;;;;;9.60;6.43;;;12.80;99.90;;;;;;5074146;28;20048;-69
2022/08/07 01:33:28;;;;;;;8.57;5.78;;;12.80;99.90;;;;;;5074374;28;20044;-69
2022/08/07 01:35:56;;;;;;;10.18;6.68;;;12.80;99.90;;;;;;5074326;28;20080;-69
2022/08/07 01:38:21;;;;;;;9.15;6.47;;;12.80;99.90;;;;;;5074233;28;20131;-69
2022/08/07 01:40:49;;;;;;;9.43;7.15;;;12.90;99.90;;;;;;5073874;28;20124;-69
2022/08/07 01:43:15;;;;;;;8.30;6.70;;;12.80;99.90;;;;;;5074138;28;20041;-69
2022/08/07 01:45:41;;;;;;;9.93;6.97;;;12.90;99.90;;;;;;5056292;28;20089;-69
2022/08/07 01:48:07;;;;;;;9.00;6.40;;;12.90;99.90;;;;;;5074107;28;20039;-69
2022/08/07 01:50:36;;;;;;;8.60;6.50;;;13.00;99.90;;;;;;5073758;28;20116;-69
2022/08/07 01:53:03;;;;;;;8.95;6.68;;;12.90;99.90;;;;;;5073819;28;20490;-69
2022/08/07 01:55:36;;;;;;;11.80;8.35;;;12.90;99.90;;;;;;5074011;28;20119;-69
2022/08/07 01:58:07;;;;;;;12.53;7.17;;;13.00;99.90;;;;;;5056127;28;20051;-69
2022/08/07 02:00:35;;;;;;;10.68;6.35;;;13.00;99.90;;;;;;5073497;28;20498;-69
2022/08/07 02:03:06;;;;;;;10.68;7.40;;;13.00;99.90;;;;;;5073531;28;20498;-69
2022/08/07 02:05:35;;;;;;;11.93;7.63;;;13.00;99.90;;;;;;5055840;28;20036;-69
2022/08/07 02:08:06;;;;;;;10.40;6.85;;;13.00;99.90;;;;;;5073618;28;20508;-69
2022/08/07 02:10:33;;;;;;;11.13;7.15;;;13.00;99.90;;;;;;5073466;28;20040;-69
2022/08/07 02:13:01;;;;;;;8.65;6.57;;;13.00;99.90;;;;;;5073598;28;20090;-69
2022/08/07 02:15:28;;;;;;;8.57;6.50;;;13.00;99.90;;;;;;5073530;28;20066;-69
2022/08/07 02:17:56;;;;;;;10.32;7.13;;;13.00;99.90;;;;;;5073548;28;20041;-69
2022/08/07 02:20:22;;;;;;;10.35;6.60;;;13.00;99.90;;;;;;5073285;28;20037;-69
2022/08/07 02:22:50;;;;;;;10.35;7.20;;;12.90;99.90;;;;;;5073731;28;20448;-69
2022/08/07 02:25:18;;;;;;;10.23;6.75;;;13.00;99.90;;;;;;5073736;28;20044;-69
2022/08/07 02:27:46;;;;;;;10.60;6.95;;;13.00;99.90;;;;;;5073384;28;20033;-69
2022/08/07 02:30:13;;;;;;;9.85;6.90;;;12.90;99.90;;;;;;5072864;28;20051;-69
2022/08/07 02:32:39;;;;;;;9.10;6.97;;;12.90;99.90;;;;;;5073114;28;20528;-69
2022/08/07 02:35:07;;;;;;;10.82;7.15;;;12.90;99.90;;;;;;5055207;28;20383;-69
2022/08/07 02:37:36;;;;;;;9.35;6.40;;;12.90;99.90;;;;;;5073250;28;20040;-69
2022/08/07 02:40:05;;;;;;;8.40;6.10;;;12.90;99.90;;;;;;5072690;28;20093;-69
2022/08/07 02:42:33;;;;;;;10.85;7.25;;;12.90;99.90;;;;;;5073148;28;20045;-69
2022/08/07 02:45:01;;;;;;;11.00;6.38;;;12.80;99.90;;;;;;5055088;28;20069;-69
2022/08/07 02:47:27;;;;;;;11.07;7.10;;;12.90;99.90;;;;;;5072887;28;20482;-69
2022/08/07 02:49:53;;;;;;;12.13;7.05;;;12.80;99.90;;;;;;5072833;28;20044;-69
2022/08/07 02:52:25;;;;;;;9.38;6.93;;;12.80;99.90;;;;;;5072165;28;20047;-69
2022/08/07 02:54:52;;;;;;;8.80;7.22;;;12.90;99.90;;;;;;5072866;28;20115;-69
2022/08/07 02:57:22;;;;;;;10.02;6.68;;;12.80;99.90;;;;;;5072658;28;20051;-69
2022/08/07 02:59:49;;;;;;;11.95;6.32;;;12.80;99.90;;;;;;5054598;28;20375;-69
2022/08/07 03:02:17;;;;;;;10.15;6.30;;;12.70;99.90;;;;;;5072501;28;20044;-69
2022/08/07 03:04:45;;;;;;;12.82;7.60;;;12.80;99.90;;;;;;5072697;28;20040;-69
2022/08/07 03:07:11;;;;;;;9.70;7.25;;;12.80;99.90;;;;;;5072533;28;20047;-69
2022/08/07 03:09:38;;;;;;;9.68;7.28;;;12.80;99.90;;;;;;5072177;28;20474;-69
2022/08/07 03:12:05;;;;;;;10.57;7.80;;;12.70;99.90;;;;;;5072291;28;20135;-69
2022/08/07 03:14:34;;;;;;;8.85;6.43;;;12.80;99.90;;;;;;5054524;28;20094;-69
2022/08/07 03:17:01;;;;;;;8.05;6.07;;;12.70;99.90;;;;;;5072416;28;20094;-69
2022/08/07 03:19:27;;;;;;;10.70;7.53;;;12.80;99.90;;;;;;5054362;28;20048;-69
2022/08/07 03:21:54;;;;;;;8.52;5.72;;;12.70;99.90;;;;;;5054309;28;20493;-69
2022/08/07 03:24:20;;;;;;;7.95;5.28;;;12.80;99.90;;;;;;5072086;28;20036;-69
2022/08/07 03:26:50;;;;;;;9.23;6.90;;;12.80;99.90;;;;;;5054291;28;20516;-69
2022/08/07 03:29:17;;;;;;;8.68;5.82;;;12.70;99.90;;;;;;5071858;28;20394;-69
2022/08/07 03:31:44;;;;;;;7.50;5.43;;;12.80;99.90;;;;;;5072261;28;20119;-69
2022/08/07 03:34:12;;;;;;;8.65;6.63;;;12.80;99.90;;;;;;5072107;28;20049;-69
2022/08/07 03:36:39;;;;;;;7.53;5.75;;;12.80;99.90;;;;;;5072040;28;20040;-69
2022/08/07 03:39:10;;;;;;;6.72;5.32;;;12.80;99.90;;;;;;5071798;28;20043;-69
2022/08/07 03:41:36;;;;;;;9.52;6.15;;;12.70;99.90;;;;;;5072002;28;20080;-69
2022/08/07 03:44:03;;;;;;;8.48;5.68;;;12.70;99.90;;;;;;5071821;28;20068;-69
2022/08/07 03:46:29;;;;;;;10.05;6.35;;;12.70;99.90;;;;;;5071946;28;20044;-69
2022/08/07 03:48:55;;;;;;;7.65;5.97;;;12.60;99.90;;;;;;5071803;28;20418;-68
2022/08/07 03:51:22;;;;;;;10.10;7.60;;;12.60;99.90;;;;;;5071536;28;20046;-69
2022/08/07 03:53:48;;;;;;;9.75;6.88;;;12.60;99.90;;;;;;5071570;28;20032;-69
2022/08/07 03:56:18;;;;;;;8.98;6.45;;;12.50;99.90;;;;;;5053799;28;20043;-69
2022/08/07 03:58:44;;;;;;;7.95;5.95;;;12.50;99.90;;;;;;5071936;28;20086;-69
2022/08/07 04:01:12;;;;;;;8.98;5.93;;;12.40;99.90;;;;;;5071381;28;20055;-69
2022/08/07 04:03:38;;;;;;;8.05;5.40;;;12.40;99.90;;;;;;5071546;28;20549;-69
2022/08/07 04:06:09;;;;;;;7.10;5.00;;;12.30;99.90;;;;;;5053850;28;20076;-69
2022/08/07 04:08:35;;;;;;;7.15;4.68;;;12.30;99.90;;;;;;5071830;28;20044;-69
2022/08/07 04:11:01;;;;;;;5.63;4.45;;;12.10;99.90;;;;;;5071485;28;20045;-69
2022/08/07 04:13:27;;;;;;;6.35;4.68;;;12.20;99.90;;;;;;5071733;28;20115;-69
2022/08/07 04:15:53;;;;;;;6.45;4.22;;;12.10;99.90;;;;;;5071614;28;20036;-69
2022/08/07 04:18:19;;;;;;;8.70;5.50;;;12.10;99.90;;;;;;5071631;28;20032;-69
2022/08/07 04:20:45;;;;;;;8.13;5.13;;;12.10;99.90;;;;;;5071041;28;20043;-69
2022/08/07 04:23:12;;;;;;;7.97;5.22;;;12.20;99.90;;;;;;5053571;28;20394;-69
2022/08/07 04:25:40;;;;;;;7.38;5.47;;;12.20;99.90;;;;;;5053498;28;20043;-70
2022/08/07 04:28:07;;;;;;;6.57;5.00;;;12.30;99.90;;;;;;5071621;28;20029;-70
2022/08/07 04:30:34;;;;;;;7.90;5.45;;;12.30;99.90;;;;;;5053160;28;20578;-69
2022/08/07 04:33:00;;;;;;;8.85;5.93;;;12.20;99.90;;;;;;5053384;28;20048;-70
2022/08/07 04:35:26;;;;;;;11.18;5.90;;;12.30;99.90;;;;;;5053765;28;20047;-70
2022/08/07 04:37:51;;;;;;;6.63;4.90;;;12.30;99.90;;;;;;5071226;28;20072;-70
2022/08/07 04:40:17;;;;;;;7.32;5.40;;;12.30;99.90;;;;;;5071156;28;20052;-70
2022/08/07 04:42:43;;;;;;;10.60;6.45;;;12.40;99.90;;;;;;5071328;28;20033;-69
2022/08/07 04:45:10;;;;;;;8.68;5.57;;;12.40;99.90;;;;;;5053618;28;20055;-70
2022/08/07 04:48:03;;;;;;;8.85;5.75;;;12.50;99.90;;;;;;5053236;28;20044;-70
2022/08/07 04:50:38;;;;;;;7.13;5.82;;;12.50;99.90;;;;;;5060998;28;20048;-70
2022/08/07 04:53:19;;;;;;;11.45;5.68;;;12.60;99.90;;;;;;5071242;28;20032;-69
2022/08/07 04:55:51;;;;;;;8.98;5.97;;;12.60;99.90;;;;;;5071226;28;20537;-69
2022/08/07 04:58:22;;;;;;;8.02;5.68;;;12.60;99.90;;;;;;5053130;28;20440;-70
2022/08/07 05:00:56;;;;;;;8.73;6.20;;;12.80;99.90;;;;;;5071028;28;20045;-70
2022/08/07 05:03:59;;;;;;;7.70;5.88;;;12.80;99.90;;;;;;5071115;28;20036;-69
2022/08/07 05:06:57;;;;;;;8.98;5.82;;;12.90;99.90;;;;;;5053448;28;20398;-70
2022/08/07 05:09:31;;;;;;;7.43;5.70;;;13.00;99.90;;;;;;5055620;28;20048;-69
2022/08/07 05:12:01;;;;;;;7.32;4.40;;;13.20;99.90;;;;;;5071006;28;20516;-70
2022/08/07 05:14:32;;;;;;;8.00;5.10;;;13.30;99.90;;;;;;5070997;28;20668;-69
2022/08/07 05:17:01;;;;;;;7.35;4.97;;;13.50;99.90;;;;;;5074561;28;20041;-70
2022/08/07 05:19:33;;;;;;;9.50;6.28;;;13.60;99.90;;;;;;5074477;28;20036;-70
2022/08/07 05:22:01;;;;;;;9.77;5.53;;;13.80;99.90;;;;;;5074605;28;20123;-70
2022/08/07 05:24:28;;;;;;;9.05;5.47;;;13.90;99.90;;;;;;5074536;28;20032;-70
2022/08/07 05:26:56;;;;;;;7.28;4.75;;;14.10;99.90;;;;;;5074525;28;20482;-70
2022/08/07 05:29:24;;;;;;;8.85;5.82;;;14.20;99.90;;;;;;5074111;28;20036;-69
2022/08/07 05:31:51;;;;;;;8.48;5.85;;;14.50;99.90;;;;;;5074355;28;20048;-70
2022/08/07 05:34:18;;;;;;;9.35;5.70;;;14.70;99.90;;;;;;5074510;28;20052;-70
2022/08/07 05:36:50;;;;;;;10.10;6.45;;;14.90;99.90;;;;;;5056573;28;20434;-69
2022/08/07 05:39:18;;;;;;;8.40;5.97;;;15.10;99.90;;;;;;5073887;28;20041;-70
2022/08/07 05:41:46;;;;;;;7.22;5.07;;;15.20;99.90;;;;;;5074171;28;20120;-70
2022/08/07 05:44:12;;;;;;;8.63;6.00;;;15.30;99.90;;;;;;5056201;28;20443;-70
2022/08/07 05:46:39;;;;;;;8.60;5.68;;;15.60;99.90;;;;;;5056468;28;20429;-70
2022/08/07 05:49:06;;;;;;;10.00;5.53;;;15.80;99.90;;;;;;5074175;28;20166;-70
2022/08/07 05:51:32;;;;;;;8.10;5.97;;;16.00;99.90;;;;;;5073831;28;20059;-70
2022/08/07 05:53:58;;;;;;;8.27;5.70;;;16.30;99.90;;;;;;5055983;28;20415;-70
2022/08/07 05:56:25;;;;;;;7.30;5.28;;;16.40;99.90;;;;;;5055993;28;20045;-70
2022/08/07 05:58:51;;;;;;;10.63;5.63;;;16.60;99.90;;;;;;5073888;28;20110;-70
2022/08/07 06:01:18;;;;;;;8.60;6.05;;;16.80;99.90;;;;;;5073686;28;20398;-70
2022/08/07 06:03:49;;;;;;;9.20;5.93;;;16.90;99.90;;;;;;5078828;22;20158;-72
2022/08/07 06:06:16;;;;;;;7.82;5.38;;;17.20;99.80;;;;;;5055867;28;20036;-72
2022/08/07 06:08:42;;;;;;;8.68;6.18;;;17.40;99.40;;;;;;5055296;28;20569;-72
2022/08/07 06:11:08;;;;;;;8.38;5.78;;;17.50;98.60;;;;;;5055296;28;20052;-72
2022/08/07 06:13:37;;;;;;;8.43;5.68;;;17.60;98.00;;;;;;5056046;28;20062;-72
2022/08/07 06:16:05;;;;;;;10.52;6.18;;;17.90;98.50;;;;;;5055683;28;20036;-73
2022/08/07 06:18:32;;;;;;;7.25;5.63;;;18.30;97.70;;;;;;5073654;28;20453;-72
2022/08/07 06:20:59;;;;;;;8.50;5.93;;;18.20;98.00;;;;;;5054996;28;20089;-72
2022/08/07 06:23:25;;;;;;;7.05;5.05;;;18.20;98.00;;;;;;5055397;28;20456;-73
2022/08/07 06:25:51;;;;;;;8.85;5.45;;;18.30;98.20;;;;;;5055106;28;20037;-72
2022/08/07 06:28:17;;;;;;;10.88;5.97;;;18.40;98.20;;;;;;5054739;28;20085;-73
2022/08/07 06:30:43;;;;;;;7.97;5.57;;;18.50;97.80;;;;;;5073106;28;20040;-73
2022/08/07 06:33:08;;;;;;;7.47;5.28;;;18.70;97.80;;;;;;5073246;28;20043;-73
2022/08/07 06:35:35;;;;;;;8.45;5.50;;;19.20;97.10;;;;;;5038905;28;20119;-73
2022/08/07 06:38:02;;;;;;;6.15;4.95;;;19.30;96.90;;;;;;5055224;28;20123;-73
2022/08/07 06:40:41;;;;;;;6.47;5.43;;;19.70;95.90;;;;;;5055139;28;20048;-73
2022/08/07 06:43:09;;;;;;;7.90;4.90;;;19.90;94.90;;;;;;5055072;28;20623;-73
2022/08/07 06:45:35;;;;;;;6.55;4.95;;;19.90;95.10;;;;;;5073120;28;20085;-73
2022/08/07 06:48:01;;;;;;;7.28;5.20;;;20.20;94.90;;;;;;5073071;28;20612;-73
2022/08/07 06:50:30;;;;;;;9.93;5.65;;;20.20;94.20;;;;;;5054874;28;20047;-72
2022/08/07 06:52:58;;;;;;;8.75;5.63;;;20.10;94.00;;;;;;5072795;28;20045;-73
2022/08/07 06:55:26;;;;;;;8.32;5.57;;;20.30;93.80;;;;;;5072935;28;20045;-73
2022/08/07 06:57:54;;;;;;;5.68;4.63;;;20.70;92.70;;;;;;5054896;28;20094;-73
2022/08/07 07:00:20;;;;;;;5.90;4.38;;;21.10;92.20;;;;;;5054610;28;20116;-73
2022/08/07 07:02:46;;;;;;;7.85;4.80;;;21.30;90.40;;;;;;5054039;28;20112;-74
2022/08/07 07:05:12;;;;;;;5.38;4.40;;;21.50;88.60;;;;;;5072687;28;20047;-73
2022/08/07 07:07:39;;;;;;;7.28;5.15;;;21.80;89.00;;;;;;5054557;28;20048;-74
2022/08/07 07:10:05;;;;;;;5.90;4.10;;;22.00;88.40;;;;;;5037969;28;20516;-74
2022/08/07 07:12:50;;;;;;;5.60;4.22;;;22.00;86.50;;;;;;5054614;28;20045;-74
2022/08/07 07:15:27;;;;;;;5.38;3.92;;;21.90;82.90;;;;;;5054946;28;20379;-74
2022/08/07 07:18:17;;;;;;;5.95;4.13;;;21.90;82.50;;;;;;5054247;28;20044;-73
2022/08/07 07:20:49;;;;;;;5.85;3.85;;;22.20;82.70;;;;;;5051104;28;20048;-73
2022/08/07 07:23:16;;;;;;;4.07;3.28;;;22.20;79.70;;;;;;5036641;28;20545;-74
2022/08/07 07:25:43;;;;;;;5.15;3.47;;;22.10;79.00;;;;;;5072981;28;20079;-73
2022/08/07 07:28:17;;;;;;;6.90;3.85;;;22.40;79.50;;;;;;5053739;28;20037;-73
2022/08/07 07:30:49;;;;;;;6.68;3.67;;;22.30;77.60;;;;;;5058714;28;20036;-73
2022/08/07 07:33:16;;;;;;;5.10;2.97;;;22.50;77.70;;;;;;5054166;28;20440;-73
2022/08/07 07:35:50;;;;;;;3.70;2.88;;;22.60;76.40;;;;;;5053518;28;20120;-72
2022/08/07 07:38:18;;;;;;;6.10;2.80;;;23.00;74.30;;;;;;5052471;28;20059;-73
2022/08/07 07:40:45;;;;;;;3.53;2.47;;;23.10;73.60;;;;;;5052541;28;20045;-73
2022/08/07 07:43:13;;;;;;;5.20;2.60;;;23.10;72.90;;;;;;5053091;28;20068;-75
2022/08/07 07:45:40;;;;;;;4.47;2.15;;;23.30;72.40;;;;;;5071263;28;20486;-73
2022/08/07 07:48:08;;;;;;;3.53;2.22;;;23.40;71.50;;;;;;5047321;28;20041;-73
2022/08/07 07:50:34;;;;;;;5.32;2.58;;;23.40;68.00;;;;;;5071130;28;20406;-72
2022/08/07 07:53:01;;;;;;;2.25;1.70;;;23.70;69.60;;;;;;5071273;28;20043;-73
2022/08/07 07:55:28;;;;;;;3.13;1.48;;;23.70;67.80;;;;;;5050637;28;20071;-72
2022/08/07 07:57:57;;;;;;;2.88;1.40;;;23.90;66.60;;;;;;5036731;28;20639;-73
2022/08/07 08:00:24;;;;;;;2.38;1.70;;;24.10;64.80;;;;;;5053256;28;20109;-73
2022/08/07 08:02:54;;;;;;;2.28;1.92;;;24.30;65.60;;;;;;5053380;28;20410;-73
2022/08/07 08:05:21;;;;;;;4.35;2.20;;;24.20;65.30;;;;;;5053226;28;20784;-73
2022/08/07 08:07:48;;;;;;;3.97;2.42;;;24.10;64.50;;;;;;5053372;28;20043;-74
2022/08/07 08:10:15;;;;;;;3.15;2.50;;;24.20;65.10;;;;;;5053141;28;20498;-73
2022/08/07 08:12:42;;;;;;;3.90;2.67;;;24.20;63.50;;;;;;5064612;28;20506;-74
2022/08/07 08:15:08;;;;;;;3.95;2.72;;;24.20;63.00;;;;;;5071323;28;20048;-73
2022/08/07 08:17:35;;;;;;;5.55;2.40;;;24.00;62.90;;;;;;5053416;28;20035;-73
2022/08/07 08:20:05;;;;;;;4.05;2.28;;;24.10;63.90;;;;;;5070957;28;20068;-73
2022/08/07 08:28:11;;;;;;;5.03;2.58;;;24.60;62.80;;;;;;5053218;28;20127;-74
2022/08/07 08:30:38;;;;;;;3.75;2.75;;;24.40;63.00;;;;;;5053198;28;20041;-74
2022/08/07 08:33:05;;;;;;;3.53;2.60;;;24.40;63.40;;;;;;5053261;28;20037;-74
2022/08/07 08:35:33;;;;;;;3.47;2.65;;;24.60;62.20;;;;;;5053343;28;20040;-73
2022/08/07 08:38:01;;;;;;;4.40;3.17;;;24.50;63.30;;;;;;5053336;28;20145;-73
2022/08/07 08:40:39;;;;;;;3.67;2.78;;;24.60;62.80;;;;;;5052805;28;20090;-74
2022/08/07 08:43:19;;;;;;;2.85;2.50;;;24.40;59.60;;;;;;5036408;28;20116;-74
2022/08/07 08:46:08;;;;;;;4.57;2.92;;;24.60;61.60;;;;;;5036332;28;20456;-74
2022/08/07 08:48:45;;;;;;;4.60;2.78;;;24.40;60.00;;;;;;5042512;28;20048;-74
2022/08/07 08:51:34;;;;;;;3.95;2.67;;;24.60;61.10;;;;;;5055580;28;20052;-73
2022/08/07 08:54:07;;;;;;;3.40;2.45;;;24.70;61.80;;;;;;5075173;28;20048;-74
2022/08/07 08:56:37;;;;;;;6.13;3.03;;;24.90;61.20;;;;;;5057054;28;20040;-74
2022/08/07 08:59:16;;;;;;;3.47;2.65;;;25.10;60.00;;;;;;5074915;28;20044;-74
2022/08/07 09:02:12;;;;;;;6.32;2.88;;;25.30;61.30;;;;;;5074718;28;20056;-74
2022/08/07 09:05:03;;;;;;;3.90;2.63;;;25.40;59.70;;;;;;5074817;28;20040;-74
2022/08/07 09:08:03;;;;;;;3.65;3.03;;;25.50;59.20;;;;;;5006887;28;20401;-74
2022/08/07 09:10:39;;;;;;;6.13;3.03;;;25.40;58.10;;;;;;5043820;28;20036;-74
2022/08/07 09:13:16;;;;;;;5.15;3.10;;;25.40;59.30;;;;;;5056588;28;20436;-73
2022/08/07 09:15:50;;;;;;;4.22;2.80;;;25.30;58.80;;;;;;5056881;28;20036;-74
2022/08/07 09:18:56;;;;;;;3.72;3.03;;;25.30;58.70;;;;;;5056302;28;20518;-75
2022/08/07 09:21:38;;;;;;;3.50;2.58;;;25.00;57.90;;;;;;5074063;28;20051;-74
2022/08/07 09:24:29;;;;;;;2.72;2.20;;;25.00;55.90;;;;;;5043824;28;20036;-74
2022/08/07 09:26:55;;;;;;;3.13;2.40;;;25.20;56.20;;;;;;5056175;28;20494;-74
2022/08/07 09:29:32;;;;;;;3.83;2.20;;;25.10;56.20;;;;;;5055959;28;20132;-74
2022/08/07 09:32:24;;;;;;;2.95;2.22;;;25.40;57.20;;;;;;5053980;28;20493;-74
2022/08/07 09:35:04;;;;;;;4.07;2.47;;;25.10;55.00;;;;;;5073212;28;20040;-74
2022/08/07 09:37:58;;;;;;;3.65;2.20;;;25.20;56.10;;;;;;5039549;28;20036;-73
2022/08/07 09:40:52;;;;;;;3.40;1.80;;;25.00;52.90;;;;;;5047332;28;20410;-75
2022/08/07 09:43:30;;;;;;;2.92;2.08;;;25.00;54.50;;;;;;5038007;28;20502;-74
2022/08/07 09:46:27;;;;;;;2.72;2.10;;;24.80;54.60;;;;;;5039282;28;20478;-74
2022/08/07 09:49:46;;;;;;;3.78;2.25;;;24.60;54.60;;;;;;5047017;28;20040;-74
2022/08/07 09:52:39;;;;;;;2.90;2.03;;;24.40;53.00;;;;;;5046281;28;20047;-75
2022/08/07 09:55:38;;;;;;;3.20;2.38;;;24.50;54.20;;;;;;5037370;28;20237;-74
2022/08/07 09:58:40;;;;;;;2.72;2.03;;;24.40;55.50;;;;;;5055535;28;20498;-73
2022/08/07 10:01:14;;;;;;;3.17;2.00;;;24.40;54.70;;;;;;5038602;28;20047;-74
2022/08/07 10:03:48;;;;;;;3.63;2.10;;;24.60;55.30;;;;;;5053777;28;20150;-74
2022/08/07 10:06:26;;;;;;;2.90;2.20;;;24.70;55.30;;;;;;5055702;28;20051;-73
2022/08/07 10:09:09;;;;;;;3.50;2.13;;;24.60;55.30;;;;;;5054943;28;20497;-74
2022/08/07 10:11:54;;;;;;;3.28;2.38;;;24.40;55.10;;;;;;5055285;28;20090;-73
2022/08/07 10:14:45;;;;;;;2.53;1.95;;;24.20;54.50;;;;;;5046133;28;20048;-73
2022/08/07 10:17:38;;;;;;;3.47;2.45;;;23.90;54.50;;;;;;5055335;28;20040;-74
2022/08/07 10:20:38;;;;;;;3.40;2.13;;;24.20;55.60;;;;;;5038773;28;20557;-74
2022/08/07 10:23:48;;;;;;;3.08;2.05;;;24.00;53.90;;;;;;5047761;28;20055;-75
2022/08/07 10:26:34;;;;;;;4.40;2.58;;;24.00;54.70;;;;;;5044141;28;20075;-75
2022/08/07 10:29:40;;;;;;;2.70;2.10;;;24.20;54.60;;;;;;5043161;28;20033;-73
2022/08/07 10:32:45;;;;;;;3.05;2.22;;;24.30;54.00;;;;;;5055296;28;20037;-73
2022/08/07 10:35:45;;;;;;;4.38;2.20;;;24.20;55.20;;;;;;5045791;28;20036;-74
2022/08/07 10:38:28;;;;;;;3.25;1.77;;;24.00;55.90;;;;;;5042645;28;20042;-73
2022/08/07 10:41:24;;;;;;;3.88;1.77;;;24.00;55.50;;;;;;5054635;28;20055;-74
2022/08/07 10:44:05;;;;;;;2.40;1.70;;;24.00;55.60;;;;;;5073072;28;20040;-75
2022/08/07 10:46:59;;;;;;;4.53;2.50;;;23.90;54.90;;;;;;5055054;28;20383;-74
2022/08/07 10:49:43;;;;;;;4.38;2.15;;;23.90;56.20;;;;;;5008592;28;20055;-74
2022/08/07 10:52:20;;;;;;;2.58;1.70;;;24.00;55.80;;;;;;5038032;28;20494;-74
2022/08/07 10:54:58;;;;;;;2.50;1.73;;;24.10;54.70;;;;;;5055027;28;20072;-74
2022/08/07 10:57:30;;;;;;;4.18;1.58;;;24.00;54.30;;;;;;5052907;28;20032;-74
2022/08/07 11:00:15;;;;;;;3.72;1.80;;;24.00;55.70;;;;;;5054376;28;20040;-74
2022/08/07 11:02:57;;;;;;;3.45;1.75;;;24.10;52.60;;;;;;5054350;28;20075;-75
2022/08/07 11:05:51;;;;;;;3.63;1.42;;;24.00;51.70;;;;;;5055043;28;20032;-74
2022/08/07 11:08:42;;;;;;;3.17;1.85;;;23.90;50.90;;;;;;5054692;28;20127;-74
2022/08/07 11:11:23;;;;;;;3.00;1.70;;;23.70;53.70;;;;;;5054363;28;20044;-74
2022/08/07 11:14:02;;;;;;;1.88;1.38;;;23.50;52.40;;;;;;5054291;28;20559;-75
2022/08/07 11:16:35;;;;;;;2.08;1.67;;;23.20;51.40;;;;;;5037810;28;20041;-74
2022/08/07 11:19:23;;;;;;;3.95;1.63;;;23.40;53.40;;;;;;5054297;28;20048;-75
2022/08/07 11:22:04;;;;;;;2.30;1.63;;;23.50;52.80;;;;;;5054337;28;20048;-74
2022/08/07 11:24:57;;;;;;;2.60;1.52;;;23.50;51.70;;;;;;5054175;28;20037;-74
2022/08/07 11:27:31;;;;;;;2.38;1.73;;;23.70;51.80;;;;;;5053944;28;20059;-74
2022/08/07 11:30:04;;;;;;;1.80;1.30;;;23.60;51.20;;;;;;5054112;28;20043;-75
2022/08/07 11:32:33;;;;;;;5.78;2.30;;;23.70;52.00;;;;;;5072196;28;20047;-74
2022/08/07 11:35:07;;;;;;;5.22;1.88;;;23.60;52.20;;;;;;5054244;28;20044;-73
2022/08/07 11:37:39;;;;;;;2.67;1.60;;;23.50;53.40;;;;;;5054339;28;20054;-74
2022/08/07 11:40:07;;;;;;;2.15;1.42;;;23.70;53.50;;;;;;5053848;28;20102;-74
2022/08/07 11:42:57;;;;;;;3.58;2.00;;;23.60;51.80;;;;;;5053872;28;20059;-74
2022/08/07 11:45:29;;;;;;;2.70;1.60;;;23.70;54.60;;;;;;5054310;28;20039;-74
2022/08/07 11:47:54;;;;;;;3.17;1.58;;;23.90;54.20;;;;;;5037455;28;20074;-74
2022/08/07 11:50:49;;;;;;;2.25;1.55;;;23.70;53.20;;;;;;5053876;28;20052;-74
2022/08/07 11:53:33;;;;;;;3.15;1.65;;;23.60;52.90;;;;;;4983705;28;20085;-73
2022/08/07 11:56:20;;;;;;;3.13;1.70;;;23.50;54.00;;;;;;5053942;28;20041;-73
2022/08/07 11:59:20;;;;;;;4.50;1.60;;;23.40;52.40;;;;;;5054029;28;20486;-73
2022/08/07 12:02:15;;;;;;;2.33;1.88;;;23.40;50.60;;;;;;5071668;28;20562;-74
2022/08/07 12:04:59;;;;;;;2.72;1.98;;;23.30;50.90;;;;;;5053954;28;20032;-72
2022/08/07 12:07:28;;;;;;;5.75;1.50;;;23.50;54.00;;;;;;5053797;28;20119;-72
2022/08/07 12:10:07;;;;;;;4.10;1.88;;;23.50;54.40;;;;;;5053503;28;20090;-73
2022/08/07 12:12:45;;;;;;;2.78;1.80;;;23.70;54.30;;;;;;5053626;28;20049;-72
2022/08/07 12:15:20;;;;;;;3.30;1.65;;;23.70;54.10;;;;;;5053623;28;20048;-72
2022/08/07 12:17:55;;;;;;;4.07;1.70;;;23.50;53.60;;;;;;5053750;28;20040;-72
2022/08/07 12:20:34;;;;;;;3.47;1.83;;;23.40;54.00;;;;;;5053427;28;20081;-72
2022/08/07 12:23:11;;;;;;;2.42;1.63;;;23.40;53.90;;;;;;5053620;28;20052;-72
2022/08/07 12:25:55;;;;;;;2.30;1.63;;;23.30;55.00;;;;;;5055915;28;20045;-72
2022/08/07 12:28:35;;;;;;;1.95;1.58;;;23.30;53.50;;;;;;5050827;28;20101;-73
2022/08/07 12:31:11;;;;;;;2.65;1.77;;;23.20;55.90;;;;;;5057372;28;20083;-72
2022/08/07 12:33:38;;;;;;;4.18;1.83;;;23.30;55.70;;;;;;5057758;28;20509;-73
2022/08/07 12:36:05;;;;;;;2.42;2.10;;;23.40;55.50;;;;;;5057551;28;20111;-72
2022/08/07 12:38:31;;;;;;;3.28;2.17;;;23.30;55.70;;;;;;5055404;28;20110;-72
2022/08/07 12:40:59;;;;;;;3.67;1.58;;;23.30;55.80;;;;;;5056851;28;20074;-72
2022/08/07 12:43:29;;;;;;;3.50;1.85;;;22.80;53.10;;;;;;5057430;28;20041;-73
2022/08/07 12:46:22;;;;;;;2.95;1.83;;;23.00;54.60;;;;;;5057405;28;20452;-72
2022/08/07 12:49:07;;;;;;;2.47;1.50;;;23.00;55.10;;;;;;5057402;28;20040;-72
2022/08/07 12:51:40;;;;;;;2.42;1.60;;;23.20;53.80;;;;;;5040420;28;20094;-72
2022/08/07 12:54:24;;;;;;;6.20;1.90;;;23.20;52.30;;;;;;5056578;28;20095;-72
2022/08/07 12:56:52;;;;;;;2.60;1.38;;;23.20;53.70;;;;;;5040820;28;20576;-73
2022/08/07 12:59:22;;;;;;;2.00;1.75;;;23.00;53.00;;;;;;5056847;28;20786;-73
2022/08/07 13:02:23;;;;;;;2.92;1.55;;;22.90;53.70;;;;;;5056662;28;20062;-72
2022/08/07 13:05:23;;;;;;;2.25;1.55;;;22.90;52.80;;;;;;5036916;28;20037;-73
2022/08/07 13:08:13;;;;;;;2.28;1.70;;;22.90;53.70;;;;;;5036999;28;20045;-72
2022/08/07 13:11:12;;;;;;;2.35;1.38;;;23.10;54.60;;;;;;5036973;28;20082;-72
2022/08/07 13:14:25;;;;;;;3.53;1.90;;;23.30;55.20;;;;;;5053769;28;20044;-73
2022/08/07 13:17:08;;;;;;;2.53;1.52;;;23.50;54.00;;;;;;5029929;28;20084;-73
2022/08/07 13:19:46;;;;;;;2.55;1.40;;;23.50;55.20;;;;;;5020197;28;20040;-73
2022/08/07 13:22:39;;;;;;;2.45;1.45;;;23.60;54.40;;;;;;5036618;28;20091;-73